createdAt,value
2019-03-22T00:02:15.303Z,2.86
2019-03-22T00:07:19.920Z,2.75
2019-03-22T00:12:24.491Z,2.68
2019-03-22T00:17:29.072Z,2.67
2019-03-22T00:22:33.998Z,2.68
2019-03-22T00:27:38.568Z,2.56
2019-03-22T00:32:44.038Z,2.50
2019-03-22T00:37:48.699Z,2.39
2019-03-22T00:42:53.217Z,2.39
2019-03-22T00:47:57.822Z,2.35
2019-03-22T00:53:02.449Z,2.28
2019-03-22T00:58:07.027Z,2.26
2019-03-22T01:03:11.600Z,2.22
2019-03-22T01:08:16.194Z,2.30
2019-03-22T01:13:20.817Z,2.31
2019-03-22T01:18:27.243Z,2.56
2019-03-22T01:23:31.827Z,2.71
2019-03-22T01:28:36.470Z,2.87
2019-03-22T01:33:41.090Z,3.08
2019-03-22T01:38:45.758Z,3.25
2019-03-22T01:43:50.308Z,3.41
2019-03-22T01:48:56.516Z,3.55
2019-03-22T01:54:01.470Z,3.63
2019-03-22T01:59:06.112Z,3.69
2019-03-22T02:04:10.663Z,3.80
2019-03-22T02:09:15.255Z,3.82
2019-03-22T02:14:20.137Z,3.77
2019-03-22T02:19:24.743Z,3.81
2019-03-22T02:24:29.282Z,3.83
2019-03-22T02:29:34.166Z,3.86
2019-03-22T02:34:38.692Z,3.92
2019-03-22T02:39:43.517Z,3.97
2019-03-22T02:44:48.160Z,4.03
2019-03-22T02:49:52.793Z,4.17
2019-03-22T02:54:57.728Z,4.34
2019-03-22T03:00:03.524Z,4.38
2019-03-22T03:05:08.519Z,4.43
2019-03-22T03:10:13.305Z,4.52
2019-03-22T03:15:17.901Z,4.59
2019-03-22T03:20:22.488Z,4.67
2019-03-22T03:25:27.869Z,4.73
2019-03-22T03:30:32.541Z,4.78
2019-03-22T03:35:37.178Z,4.85
2019-03-22T03:40:41.724Z,4.96
2019-03-22T03:45:46.680Z,5.10
2019-03-22T03:50:51.541Z,5.07
2019-03-22T03:55:56.131Z,5.11
2019-03-22T04:01:00.749Z,5.15
2019-03-22T04:06:05.589Z,5.22
2019-03-22T04:11:10.135Z,5.27
2019-03-22T04:16:14.783Z,5.26
2019-03-22T04:21:19.353Z,5.26
2019-03-22T04:26:24.058Z,5.34
2019-03-22T04:31:28.585Z,5.40
2019-03-22T04:36:33.281Z,5.44
2019-03-22T04:41:37.923Z,5.48
2019-03-22T04:46:44.648Z,5.53
2019-03-22T04:51:49.942Z,5.55
2019-03-22T04:56:56.223Z,5.60
2019-03-22T05:02:02.328Z,5.68
2019-03-22T05:07:07.683Z,5.70
2019-03-22T05:12:15.224Z,5.72
2019-03-22T05:17:20.919Z,5.74
2019-03-22T05:22:28.080Z,5.79
2019-03-22T05:27:36.176Z,5.81
2019-03-22T05:32:40.804Z,5.92
2019-03-22T05:37:45.414Z,5.95
2019-03-22T05:42:49.998Z,5.99
2019-03-22T05:47:54.619Z,6.10
2019-03-22T05:52:59.204Z,6.25
2019-03-22T05:58:03.789Z,6.38
2019-03-22T06:03:08.469Z,6.51
2019-03-22T06:08:13.099Z,6.56
2019-03-22T06:13:17.743Z,6.59
2019-03-22T06:18:22.381Z,6.64
2019-03-22T06:23:27.224Z,6.73
2019-03-22T06:28:31.848Z,6.78
2019-03-22T06:33:36.455Z,6.88
2019-03-22T06:38:41.316Z,6.94
2019-03-22T06:43:45.902Z,7.05
2019-03-22T06:48:50.696Z,7.11
2019-03-22T06:53:55.327Z,7.20
2019-03-22T06:59:00.755Z,7.26
2019-03-22T07:04:05.459Z,7.39
2019-03-22T07:09:10.320Z,7.45
2019-03-22T07:14:15.296Z,7.53
2019-03-22T07:19:19.888Z,7.71
2019-03-22T07:24:25.023Z,7.82
2019-03-22T07:29:31.086Z,7.95
2019-03-22T07:34:36.020Z,7.98
2019-03-22T07:39:40.716Z,8.24
2019-03-22T07:44:45.252Z,8.34
2019-03-22T07:49:49.987Z,8.57
2019-03-22T07:54:54.607Z,8.64
2019-03-22T07:59:59.195Z,8.80
2019-03-22T08:05:04.280Z,8.80
2019-03-22T08:10:08.897Z,9.01
2019-03-22T08:15:25.579Z,9.28
2019-03-22T08:20:30.395Z,9.48
2019-03-22T08:25:34.957Z,9.66
2019-03-22T08:30:43.342Z,9.86
2019-03-22T08:35:45.868Z,10.10
2019-03-22T08:40:50.460Z,10.12
2019-03-22T08:45:55.028Z,10.23
2019-03-22T08:50:59.651Z,10.47
2019-03-22T08:56:04.207Z,10.62
2019-03-22T09:01:08.763Z,10.52
2019-03-22T09:06:13.400Z,10.62
2019-03-22T09:11:18.313Z,10.96
2019-03-22T09:16:22.917Z,11.10
2019-03-22T09:21:27.757Z,11.16
2019-03-22T09:26:32.448Z,11.23
2019-03-22T09:31:37.076Z,11.10
2019-03-22T09:36:41.761Z,11.47
2019-03-22T09:41:46.811Z,11.72
2019-03-22T09:46:51.371Z,11.78
2019-03-22T09:51:55.955Z,11.54
2019-03-22T09:57:00.507Z,11.34
2019-03-22T10:02:05.759Z,11.49
2019-03-22T10:07:11.943Z,11.74
2019-03-22T10:12:16.524Z,11.90
2019-03-22T10:17:21.072Z,12.02
2019-03-22T10:22:25.702Z,12.19
2019-03-22T10:27:30.608Z,12.19
2019-03-22T10:32:35.199Z,12.22
2019-03-22T10:37:40.174Z,12.51
2019-03-22T10:42:45.059Z,12.36
2019-03-22T10:47:49.779Z,12.42
2019-03-22T10:52:54.354Z,12.27
2019-03-22T10:57:58.949Z,12.36
2019-03-22T11:03:03.832Z,12.44
2019-03-22T11:08:08.528Z,12.41
2019-03-22T11:13:13.118Z,12.15
2019-03-22T11:18:17.725Z,12.30
2019-03-22T11:23:22.313Z,12.44
2019-03-22T11:28:26.873Z,12.55
2019-03-22T11:33:31.597Z,12.66
2019-03-22T11:38:36.580Z,12.80
2019-03-22T11:43:41.144Z,13.09
2019-03-22T11:48:45.730Z,13.45
2019-03-22T11:53:50.300Z,13.72
2019-03-22T11:58:54.930Z,13.53
2019-03-22T12:03:59.830Z,13.35
2019-03-22T12:09:08.307Z,13.67
2019-03-22T12:14:13.243Z,13.87
2019-03-22T12:19:17.856Z,14.33
2019-03-22T12:24:22.458Z,14.08
2019-03-22T12:29:27.081Z,14.55
2019-03-22T12:34:31.751Z,14.44
2019-03-22T12:39:36.404Z,14.54
2019-03-22T12:44:40.968Z,14.41
2019-03-22T12:49:45.534Z,14.82
2019-03-22T12:54:50.188Z,14.89
2019-03-22T12:59:55.169Z,14.85
2019-03-22T13:04:59.774Z,14.68
2019-03-22T13:10:05.611Z,14.45
2019-03-22T13:15:10.432Z,14.45
2019-03-22T13:20:15.803Z,15.24
2019-03-22T13:25:21.267Z,15.80
2019-03-22T13:30:34.024Z,16.41
2019-03-22T13:35:38.732Z,16.63
2019-03-22T13:40:43.305Z,17.10
2019-03-22T13:45:48.424Z,16.93
2019-03-22T13:50:53.392Z,17.02
2019-03-22T13:55:58.069Z,16.77
2019-03-22T14:01:02.851Z,16.97
2019-03-22T14:06:07.483Z,16.18
2019-03-22T14:11:12.524Z,16.34
2019-03-22T14:16:17.100Z,15.88
2019-03-22T14:21:22.045Z,15.53
2019-03-22T14:26:26.794Z,16.23
2019-03-22T14:31:31.719Z,16.63
2019-03-22T14:36:36.293Z,16.09
2019-03-22T14:41:40.939Z,15.80
2019-03-22T14:46:45.592Z,15.32
2019-03-22T14:51:50.170Z,15.50
2019-03-22T14:56:55.114Z,14.82
2019-03-22T15:01:59.718Z,14.13
2019-03-22T15:07:04.498Z,14.16
2019-03-22T15:12:09.081Z,14.12
2019-03-22T15:17:14.073Z,14.37
2019-03-22T15:22:18.661Z,14.47
2019-03-22T15:27:23.300Z,14.74
2019-03-22T15:32:27.867Z,14.13
2019-03-22T15:37:32.909Z,14.38
2019-03-22T15:42:37.779Z,13.85
2019-03-22T15:47:42.744Z,13.60
2019-03-22T15:52:47.390Z,13.95
2019-03-22T15:57:52.527Z,13.68
2019-03-22T16:02:57.225Z,13.25
2019-03-22T16:08:01.822Z,13.25
2019-03-22T16:13:06.568Z,13.01
2019-03-22T16:18:11.212Z,12.89
2019-03-22T16:23:15.846Z,12.66
2019-03-22T16:28:21.716Z,12.27
2019-03-22T16:33:26.355Z,12.35
2019-03-22T16:38:33.465Z,12.49
2019-03-22T16:43:38.185Z,11.71
2019-03-22T16:48:43.379Z,11.19
2019-03-22T16:53:53.689Z,11.24
2019-03-22T16:58:58.703Z,10.84
2019-03-22T17:04:04.619Z,10.48
2019-03-22T17:09:09.514Z,10.22
2019-03-22T17:14:15.418Z,10.08
2019-03-22T17:19:19.954Z,9.90
2019-03-22T17:24:24.640Z,9.73
2019-03-22T17:29:29.221Z,9.47
2019-03-22T17:34:34.728Z,9.30
2019-03-22T17:39:39.374Z,9.15
2019-03-22T17:44:43.931Z,9.06
2019-03-22T17:49:48.737Z,8.86
2019-03-22T17:54:53.601Z,8.78
2019-03-22T17:59:58.324Z,8.63
2019-03-22T18:05:03.008Z,8.49
2019-03-22T18:10:08.059Z,8.39
2019-03-22T18:15:12.922Z,8.26
2019-03-22T18:20:17.554Z,8.16
2019-03-22T18:25:22.167Z,8.00
2019-03-22T18:30:26.790Z,7.92
2019-03-22T18:35:31.435Z,7.82
2019-03-22T18:40:36.118Z,7.74
2019-03-22T18:45:40.778Z,7.69
2019-03-22T18:50:56.062Z,7.61
2019-03-22T18:55:53.123Z,7.43
2019-03-22T19:00:57.847Z,7.26
2019-03-22T19:06:03.060Z,7.16
2019-03-22T19:11:07.735Z,7.08
2019-03-22T19:16:12.454Z,7.05
2019-03-22T19:21:17.317Z,6.88
2019-03-22T19:26:22.069Z,6.86
2019-03-22T19:31:26.778Z,7.00
2019-03-22T19:36:31.589Z,6.82
2019-03-22T19:41:36.301Z,6.73
2019-03-22T19:46:40.885Z,6.67
2019-03-22T19:51:45.488Z,6.75
2019-03-22T19:56:50.146Z,6.64
2019-03-22T20:01:54.733Z,6.78
2019-03-22T20:06:59.370Z,6.89
2019-03-22T20:12:04.105Z,6.91
2019-03-22T20:17:08.961Z,6.70
2019-03-22T20:22:13.703Z,6.57
2019-03-22T20:27:18.337Z,6.39
2019-03-22T20:32:22.974Z,6.46
2019-03-22T20:37:27.580Z,6.35
2019-03-22T20:42:32.288Z,6.42
2019-03-22T20:47:36.920Z,6.34
2019-03-22T20:52:41.594Z,6.19
2019-03-22T20:57:46.446Z,6.11
2019-03-22T21:02:51.663Z,6.01
2019-03-22T21:07:56.510Z,5.97
2019-03-22T21:13:01.564Z,5.99
2019-03-22T21:18:06.329Z,5.97
2019-03-22T21:23:10.958Z,5.84
2019-03-22T21:28:15.567Z,5.73
2019-03-22T21:33:20.439Z,5.75
2019-03-22T21:38:25.064Z,5.57
2019-03-22T21:43:29.660Z,5.45
2019-03-22T21:48:34.274Z,5.39
2019-03-22T21:53:41.585Z,5.28
2019-03-22T21:58:46.184Z,5.13
2019-03-22T22:03:50.763Z,5.01
2019-03-22T22:08:55.409Z,4.94
2019-03-22T22:14:00.067Z,4.81
2019-03-22T22:19:04.775Z,4.66
2019-03-22T22:24:09.938Z,4.53
2019-03-22T22:29:14.831Z,4.56
2019-03-22T22:34:19.594Z,4.48
2019-03-22T22:39:24.187Z,4.43
2019-03-22T22:44:29.001Z,4.45
2019-03-22T22:49:33.904Z,4.46
2019-03-22T22:54:41.127Z,4.53
2019-03-22T22:59:45.690Z,4.50
2019-03-22T23:04:51.636Z,4.46
2019-03-22T23:09:56.300Z,4.51
2019-03-22T23:15:00.889Z,4.64
2019-03-22T23:20:07.049Z,4.63
2019-03-22T23:25:12.058Z,4.72
2019-03-22T23:30:16.719Z,4.83
2019-03-22T23:35:22.281Z,4.73
2019-03-22T23:40:26.898Z,4.69
2019-03-22T23:45:32.045Z,4.59
2019-03-22T23:50:36.905Z,4.48
2019-03-22T23:55:41.584Z,4.37
